Accueil
METAR-TAF:

METAR-TAF

Aéroports :

Mönchengladbach, Allemagne

latitude: 51-13-49N, longitude: 006-30-16E, altitude: 38 m

Observation

Le bulletin a été fait il y a 2 heures et 36 minutes, à 18:20 UTC
Vent 4 kt de ouest/sud-ouest
Température 15°C
Humidité 67%
Pression 1013 hPa
Visibilité 10 km ou plus
pas de nuages en-dessous de 1500 mètres et pas de cumulonimbus.

METAR: EDLN 241820Z 25004KT CAVOK 15/09 Q1013

Heure: 22:56 (20:56 UTC)

Prévision

Le bulletin a été fait il y a 3 heures et 56 minutes, à 17:00 UTC
Prévision valable du 24 à 18 UTC au 25 à 03 UTC
Vent 7 kt de ouest
Visibilité 10 km ou plus
Nuages fragmentés à une hauteur de 2000 ft
Evoluant progressivement
du 24 à 19 UTC au 24 à 23 UTC
Vent 6 kt de sud/sud-ouest

TAF: EDLN 241700Z 2418/2503 26007KT 9999 BKN020 BECMG 2419/2423 20006KT

Observations et prévisions météorologiques de plus de 4000 aéroports (messages METAR et TAF).

Les stations disponibles sont représentées par des disques jaunes et rouges sur la carte.

Passer la souris dessus pour voir le nom de la station.

Cliquer dessus pour voir les observations et prévisions météorologiques.

Pour changer de carte: cliquez sur les boutons verts avec une croix noire pour zoomer, sur le bouton vert avec un tiret pour effectuer un zoom arrière, ou sur les flèches vertes pour les cartes adjacentes.


METAR-TAF: